sensor_id;sensor_type;location;lat;lon;timestamp;temperature;humidity
80412;SHT30;69749;42.684;23.360;2024-03-02T00:00:21;9.26;72.93
80412;SHT30;69749;42.684;23.360;2024-03-02T00:02:48;9.14;73.30
80412;SHT30;69749;42.684;23.360;2024-03-02T00:05:19;9.14;73.35
80412;SHT30;69749;42.684;23.360;2024-03-02T00:07:47;9.26;72.69
80412;SHT30;69749;42.684;23.360;2024-03-02T00:10:20;9.19;72.76
80412;SHT30;69749;42.684;23.360;2024-03-02T00:12:50;9.25;72.91
80412;SHT30;69749;42.684;23.360;2024-03-02T00:15:31;9.33;72.55
80412;SHT30;69749;42.684;23.360;2024-03-02T00:18:01;9.09;73.15
80412;SHT30;69749;42.684;23.360;2024-03-02T00:20:26;9.26;72.98
80412;SHT30;69749;42.684;23.360;2024-03-02T00:23:03;9.33;72.51
80412;SHT30;69749;42.684;23.360;2024-03-02T00:25:50;9.26;72.71
80412;SHT30;69749;42.684;23.360;2024-03-02T00:28:27;9.35;72.43
80412;SHT30;69749;42.684;23.360;2024-03-02T00:30:59;9.46;72.34
80412;SHT30;69749;42.684;23.360;2024-03-02T00:33:34;9.51;71.80
80412;SHT30;69749;42.684;23.360;2024-03-02T00:36:04;9.43;71.97
80412;SHT30;69749;42.684;23.360;2024-03-02T00:38:30;9.57;71.78
80412;SHT30;69749;42.684;23.360;2024-03-02T00:40:59;9.67;71.17
80412;SHT30;69749;42.684;23.360;2024-03-02T00:43:41;9.63;71.56
80412;SHT30;69749;42.684;23.360;2024-03-02T00:46:07;9.78;70.68
80412;SHT30;69749;42.684;23.360;2024-03-02T00:48:33;9.83;70.40
80412;SHT30;69749;42.684;23.360;2024-03-02T00:51:03;9.77;70.47
80412;SHT30;69749;42.684;23.360;2024-03-02T00:53:32;9.91;70.32
80412;SHT30;69749;42.684;23.360;2024-03-02T00:55:58;10.01;69.76
80412;SHT30;69749;42.684;23.360;2024-03-02T00:58:25;10.08;69.46
80412;SHT30;69749;42.684;23.360;2024-03-02T01:00:50;10.16;68.98
80412;SHT30;69749;42.684;23.360;2024-03-02T01:03:16;10.14;68.85
80412;SHT30;69749;42.684;23.360;2024-03-02T01:05:42;10.04;69.03
80412;SHT30;69749;42.684;23.360;2024-03-02T01:08:08;10.09;69.04
80412;SHT30;69749;42.684;23.360;2024-03-02T01:10:34;10.21;68.54
80412;SHT30;69749;42.684;23.360;2024-03-02T01:12:59;10.11;69.04
80412;SHT30;69749;42.684;23.360;2024-03-02T01:15:25;10.15;68.96
80412;SHT30;69749;42.684;23.360;2024-03-02T01:17:50;10.14;69.25
80412;SHT30;69749;42.684;23.360;2024-03-02T01:20:16;10.11;69.12
80412;SHT30;69749;42.684;23.360;2024-03-02T01:22:42;10.24;69.11
80412;SHT30;69749;42.684;23.360;2024-03-02T01:25:08;9.93;69.45
80412;SHT30;69749;42.684;23.360;2024-03-02T01:27:34;9.87;69.97
80412;SHT30;69749;42.684;23.360;2024-03-02T01:29:59;10.05;69.65
80412;SHT30;69749;42.684;23.360;2024-03-02T01:32:25;10.06;69.67
80412;SHT30;69749;42.684;23.360;2024-03-02T01:34:50;10.15;69.76
80412;SHT30;69749;42.684;23.360;2024-03-02T01:37:16;10.11;70.22
80412;SHT30;69749;42.684;23.360;2024-03-02T01:39:41;10.25;69.99
80412;SHT30;69749;42.684;23.360;2024-03-02T01:42:07;10.38;70.01
80412;SHT30;69749;42.684;23.360;2024-03-02T01:44:32;10.43;69.79
80412;SHT30;69749;42.684;23.360;2024-03-02T01:46:58;10.49;69.67
80412;SHT30;69749;42.684;23.360;2024-03-02T01:49:24;10.57;69.37
80412;SHT30;69749;42.684;23.360;2024-03-02T01:51:49;10.67;68.99
80412;SHT30;69749;42.684;23.360;2024-03-02T01:54:15;10.72;68.56
80412;SHT30;69749;42.684;23.360;2024-03-02T01:56:40;10.60;68.71
80412;SHT30;69749;42.684;23.360;2024-03-02T01:59:06;10.64;68.56
80412;SHT30;69749;42.684;23.360;2024-03-02T02:01:31;10.42;68.99
80412;SHT30;69749;42.684;23.360;2024-03-02T02:03:57;10.26;69.43
80412;SHT30;69749;42.684;23.360;2024-03-02T02:06:23;10.16;69.85
80412;SHT30;69749;42.684;23.360;2024-03-02T02:08:48;10.09;70.27
80412;SHT30;69749;42.684;23.360;2024-03-02T02:11:17;10.21;70.41
80412;SHT30;69749;42.684;23.360;2024-03-02T02:13:43;10.26;70.10
80412;SHT30;69749;42.684;23.360;2024-03-02T02:16:08;10.12;70.14
80412;SHT30;69749;42.684;23.360;2024-03-02T02:18:34;10.09;70.25
80412;SHT30;69749;42.684;23.360;2024-03-02T02:21:01;9.84;70.84
80412;SHT30;69749;42.684;23.360;2024-03-02T02:23:27;9.87;70.74
80412;SHT30;69749;42.684;23.360;2024-03-02T02:25:52;9.99;70.73
80412;SHT30;69749;42.684;23.360;2024-03-02T02:28:18;10.11;70.17
80412;SHT30;69749;42.684;23.360;2024-03-02T02:30:43;10.01;70.66
80412;SHT30;69749;42.684;23.360;2024-03-02T02:33:09;10.04;70.61
80412;SHT30;69749;42.684;23.360;2024-03-02T02:35:34;10.11;70.44
80412;SHT30;69749;42.684;23.360;2024-03-02T02:38:00;10.04;70.52
80412;SHT30;69749;42.684;23.360;2024-03-02T02:40:26;10.12;70.31
80412;SHT30;69749;42.684;23.360;2024-03-02T02:42:52;10.14;70.06
80412;SHT30;69749;42.684;23.360;2024-03-02T02:45:18;10.15;70.09
80412;SHT30;69749;42.684;23.360;2024-03-02T02:47:44;10.09;70.09
80412;SHT30;69749;42.684;23.360;2024-03-02T02:50:11;10.09;70.07
80412;SHT30;69749;42.684;23.360;2024-03-02T02:52:38;9.87;70.97
80412;SHT30;69749;42.684;23.360;2024-03-02T02:55:06;9.97;70.81
80412;SHT30;69749;42.684;23.360;2024-03-02T02:57:32;10.08;70.62
80412;SHT30;69749;42.684;23.360;2024-03-02T03:00:02;10.06;70.73
80412;SHT30;69749;42.684;23.360;2024-03-02T03:02:30;10.08;70.73
80412;SHT30;69749;42.684;23.360;2024-03-02T03:04:56;10.12;70.36
80412;SHT30;69749;42.684;23.360;2024-03-02T03:07:23;10.08;70.66
80412;SHT30;69749;42.684;23.360;2024-03-02T03:09:48;10.05;70.68
80412;SHT30;69749;42.684;23.360;2024-03-02T03:12:14;10.08;70.47
80412;SHT30;69749;42.684;23.360;2024-03-02T03:14:40;10.19;70.31
80412;SHT30;69749;42.684;23.360;2024-03-02T03:17:06;10.34;70.12
80412;SHT30;69749;42.684;23.360;2024-03-02T03:19:33;10.08;71.06
80412;SHT30;69749;42.684;23.360;2024-03-02T03:21:59;10.16;70.64
80412;SHT30;69749;42.684;23.360;2024-03-02T03:24:24;9.99;70.78
80412;SHT30;69749;42.684;23.360;2024-03-02T03:26:50;9.85;71.54
80412;SHT30;69749;42.684;23.360;2024-03-02T03:29:15;9.90;71.48
80412;SHT30;69749;42.684;23.360;2024-03-02T03:31:41;9.78;71.45
80412;SHT30;69749;42.684;23.360;2024-03-02T03:34:06;9.91;71.72
80412;SHT30;69749;42.684;23.360;2024-03-02T03:36:32;10.04;71.44
80412;SHT30;69749;42.684;23.360;2024-03-02T03:38:57;10.19;71.00
80412;SHT30;69749;42.684;23.360;2024-03-02T03:41:23;10.26;70.13
80412;SHT30;69749;42.684;23.360;2024-03-02T03:43:48;10.15;70.57
80412;SHT30;69749;42.684;23.360;2024-03-02T03:46:13;9.95;70.99
80412;SHT30;69749;42.684;23.360;2024-03-02T03:48:39;9.80;71.54
80412;SHT30;69749;42.684;23.360;2024-03-02T03:51:04;9.98;71.29
80412;SHT30;69749;42.684;23.360;2024-03-02T03:53:30;10.08;71.16
80412;SHT30;69749;42.684;23.360;2024-03-02T03:55:55;9.88;71.61
80412;SHT30;69749;42.684;23.360;2024-03-02T03:58:21;9.76;72.20
80412;SHT30;69749;42.684;23.360;2024-03-02T04:00:47;9.77;72.33
80412;SHT30;69749;42.684;23.360;2024-03-02T04:03:12;9.80;72.03
80412;SHT30;69749;42.684;23.360;2024-03-02T04:05:38;9.95;71.83
80412;SHT30;69749;42.684;23.360;2024-03-02T04:08:04;10.02;71.22
80412;SHT30;69749;42.684;23.360;2024-03-02T04:10:29;10.01;70.98
80412;SHT30;69749;42.684;23.360;2024-03-02T04:12:55;10.08;71.29
80412;SHT30;69749;42.684;23.360;2024-03-02T04:15:21;10.06;71.11
80412;SHT30;69749;42.684;23.360;2024-03-02T04:17:48;9.99;71.42
80412;SHT30;69749;42.684;23.360;2024-03-02T04:20:14;9.87;71.74
80412;SHT30;69749;42.684;23.360;2024-03-02T04:22:39;9.90;71.77
80412;SHT30;69749;42.684;23.360;2024-03-02T04:25:05;9.98;71.77
80412;SHT30;69749;42.684;23.360;2024-03-02T04:27:31;10.04;71.47
80412;SHT30;69749;42.684;23.360;2024-03-02T04:29:59;10.19;71.23
80412;SHT30;69749;42.684;23.360;2024-03-02T04:32:28;10.04;71.11
80412;SHT30;69749;42.684;23.360;2024-03-02T04:34:53;9.74;71.65
80412;SHT30;69749;42.684;23.360;2024-03-02T04:37:19;9.69;72.47
80412;SHT30;69749;42.684;23.360;2024-03-02T04:39:45;9.56;72.86
80412;SHT30;69749;42.684;23.360;2024-03-02T04:42:11;9.56;73.01
80412;SHT30;69749;42.684;23.360;2024-03-02T04:44:36;9.42;73.74
80412;SHT30;69749;42.684;23.360;2024-03-02T04:47:04;9.60;73.47
80412;SHT30;69749;42.684;23.360;2024-03-02T04:49:29;9.60;73.37
80412;SHT30;69749;42.684;23.360;2024-03-02T04:51:55;9.77;73.29
80412;SHT30;69749;42.684;23.360;2024-03-02T04:54:22;9.60;73.92
80412;SHT30;69749;42.684;23.360;2024-03-02T04:56:47;9.78;73.76
80412;SHT30;69749;42.684;23.360;2024-03-02T04:59:18;9.77;73.83
80412;SHT30;69749;42.684;23.360;2024-03-02T05:01:44;9.90;73.29
80412;SHT30;69749;42.684;23.360;2024-03-02T05:04:10;9.97;73.07
80412;SHT30;69749;42.684;23.360;2024-03-02T05:06:39;10.09;72.83
80412;SHT30;69749;42.684;23.360;2024-03-02T05:09:08;10.18;72.62
80412;SHT30;69749;42.684;23.360;2024-03-02T05:11:34;10.29;72.55
80412;SHT30;69749;42.684;23.360;2024-03-02T05:14:03;10.38;71.75
80412;SHT30;69749;42.684;23.360;2024-03-02T05:16:28;10.34;72.15
80412;SHT30;69749;42.684;23.360;2024-03-02T05:18:54;10.45;72.04
80412;SHT30;69749;42.684;23.360;2024-03-02T05:21:19;10.55;71.62
80412;SHT30;69749;42.684;23.360;2024-03-02T05:23:45;10.38;71.90
80412;SHT30;69749;42.684;23.360;2024-03-02T05:26:10;10.19;72.39
80412;SHT30;69749;42.684;23.360;2024-03-02T05:28:39;10.15;72.66
80412;SHT30;69749;42.684;23.360;2024-03-02T05:31:05;10.04;72.93
80412;SHT30;69749;42.684;23.360;2024-03-02T05:33:30;10.14;72.82
80412;SHT30;69749;42.684;23.360;2024-03-02T05:35:58;10.22;72.33
80412;SHT30;69749;42.684;23.360;2024-03-02T05:38:23;10.32;72.30
80412;SHT30;69749;42.684;23.360;2024-03-02T05:40:49;10.36;72.13
80412;SHT30;69749;42.684;23.360;2024-03-02T05:43:14;10.45;71.59
80412;SHT30;69749;42.684;23.360;2024-03-02T05:45:40;10.45;71.94
80412;SHT30;69749;42.684;23.360;2024-03-02T05:48:07;10.45;72.07
80412;SHT30;69749;42.684;23.360;2024-03-02T05:50:33;10.50;72.22
80412;SHT30;69749;42.684;23.360;2024-03-02T05:52:58;10.57;72.03
80412;SHT30;69749;42.684;23.360;2024-03-02T05:55:24;10.64;72.03
80412;SHT30;69749;42.684;23.360;2024-03-02T05:57:50;10.72;71.91
80412;SHT30;69749;42.684;23.360;2024-03-02T06:00:35;10.80;71.52
80412;SHT30;69749;42.684;23.360;2024-03-02T06:03:01;10.80;71.57
80412;SHT30;69749;42.684;23.360;2024-03-02T06:05:26;10.84;71.80
80412;SHT30;69749;42.684;23.360;2024-03-02T06:07:52;10.73;71.86
80412;SHT30;69749;42.684;23.360;2024-03-02T06:10:17;10.63;72.14
80412;SHT30;69749;42.684;23.360;2024-03-02T06:12:43;10.66;71.98
80412;SHT30;69749;42.684;23.360;2024-03-02T06:15:09;10.67;72.19
80412;SHT30;69749;42.684;23.360;2024-03-02T06:17:35;10.66;72.13
80412;SHT30;69749;42.684;23.360;2024-03-02T06:20:01;10.67;71.84
80412;SHT30;69749;42.684;23.360;2024-03-02T06:22:26;10.57;72.16
80412;SHT30;69749;42.684;23.360;2024-03-02T06:24:51;10.74;71.89
80412;SHT30;69749;42.684;23.360;2024-03-02T06:27:17;10.73;71.60
80412;SHT30;69749;42.684;23.360;2024-03-02T06:29:42;10.35;72.55
80412;SHT30;69749;42.684;23.360;2024-03-02T06:32:08;10.25;72.77
80412;SHT30;69749;42.684;23.360;2024-03-02T06:34:33;10.15;73.44
80412;SHT30;69749;42.684;23.360;2024-03-02T06:36:59;9.93;74.46
80412;SHT30;69749;42.684;23.360;2024-03-02T06:39:24;10.02;74.62
80412;SHT30;69749;42.684;23.360;2024-03-02T06:41:51;10.18;74.18
80412;SHT30;69749;42.684;23.360;2024-03-02T06:44:16;10.26;73.51
80412;SHT30;69749;42.684;23.360;2024-03-02T06:46:42;10.22;73.68
80412;SHT30;69749;42.684;23.360;2024-03-02T06:49:07;10.19;73.91
80412;SHT30;69749;42.684;23.360;2024-03-02T06:51:34;10.35;73.60
80412;SHT30;69749;42.684;23.360;2024-03-02T06:54:00;10.45;73.48
80412;SHT30;69749;42.684;23.360;2024-03-02T06:56:26;10.46;73.25
80412;SHT30;69749;42.684;23.360;2024-03-02T06:58:51;10.52;72.87
80412;SHT30;69749;42.684;23.360;2024-03-02T07:01:17;10.57;72.78
80412;SHT30;69749;42.684;23.360;2024-03-02T07:03:43;10.42;72.78
80412;SHT30;69749;42.684;23.360;2024-03-02T07:06:11;10.42;72.92
80412;SHT30;69749;42.684;23.360;2024-03-02T07:08:37;10.36;72.97
80412;SHT30;69749;42.684;23.360;2024-03-02T07:11:02;10.42;73.19
80412;SHT30;69749;42.684;23.360;2024-03-02T07:13:30;10.46;73.24
80412;SHT30;69749;42.684;23.360;2024-03-02T07:15:56;10.45;73.25
80412;SHT30;69749;42.684;23.360;2024-03-02T07:18:42;10.56;72.88
80412;SHT30;69749;42.684;23.360;2024-03-02T07:21:12;10.36;73.17
80412;SHT30;69749;42.684;23.360;2024-03-02T07:23:38;10.55;72.98
80412;SHT30;69749;42.684;23.360;2024-03-02T07:26:04;10.60;72.30
80412;SHT30;69749;42.684;23.360;2024-03-02T07:28:29;10.67;72.24
80412;SHT30;69749;42.684;23.360;2024-03-02T07:30:59;10.50;72.44
80412;SHT30;69749;42.684;23.360;2024-03-02T07:33:25;10.45;72.80
80412;SHT30;69749;42.684;23.360;2024-03-02T07:35:50;10.42;73.19
80412;SHT30;69749;42.684;23.360;2024-03-02T07:38:16;10.35;73.35
80412;SHT30;69749;42.684;23.360;2024-03-02T07:40:42;10.34;73.42
80412;SHT30;69749;42.684;23.360;2024-03-02T07:43:08;10.36;73.78
80412;SHT30;69749;42.684;23.360;2024-03-02T07:45:34;10.45;73.63
80412;SHT30;69749;42.684;23.360;2024-03-02T07:48:01;10.31;73.43
80412;SHT30;69749;42.684;23.360;2024-03-02T07:50:29;10.41;73.74
80412;SHT30;69749;42.684;23.360;2024-03-02T07:52:55;10.32;73.61
80412;SHT30;69749;42.684;23.360;2024-03-02T07:55:21;10.16;74.36
80412;SHT30;69749;42.684;23.360;2024-03-02T07:57:46;10.39;73.77
80412;SHT30;69749;42.684;23.360;2024-03-02T08:00:12;10.38;73.96
80412;SHT30;69749;42.684;23.360;2024-03-02T08:02:40;10.35;73.97
80412;SHT30;69749;42.684;23.360;2024-03-02T08:05:06;10.34;73.82
80412;SHT30;69749;42.684;23.360;2024-03-02T08:07:31;10.18;74.40
80412;SHT30;69749;42.684;23.360;2024-03-02T08:09:57;10.21;74.30
80412;SHT30;69749;42.684;23.360;2024-03-02T08:12:22;10.01;74.96
80412;SHT30;69749;42.684;23.360;2024-03-02T08:14:48;10.14;74.84
80412;SHT30;69749;42.684;23.360;2024-03-02T08:17:14;10.18;74.68
80412;SHT30;69749;42.684;23.360;2024-03-02T08:19:40;10.21;74.85
80412;SHT30;69749;42.684;23.360;2024-03-02T08:22:06;10.31;74.82
80412;SHT30;69749;42.684;23.360;2024-03-02T08:24:32;10.35;74.67
80412;SHT30;69749;42.684;23.360;2024-03-02T08:26:59;10.34;74.71
80412;SHT30;69749;42.684;23.360;2024-03-02T08:29:24;10.28;75.02
80412;SHT30;69749;42.684;23.360;2024-03-02T08:31:50;10.42;74.77
80412;SHT30;69749;42.684;23.360;2024-03-02T08:34:16;10.48;75.00
80412;SHT30;69749;42.684;23.360;2024-03-02T08:36:41;10.64;74.76
80412;SHT30;69749;42.684;23.360;2024-03-02T08:39:10;10.80;73.87
80412;SHT30;69749;42.684;23.360;2024-03-02T08:41:49;10.62;73.91
80412;SHT30;69749;42.684;23.360;2024-03-02T08:44:15;10.66;73.92
80412;SHT30;69749;42.684;23.360;2024-03-02T08:46:41;10.73;73.99
80412;SHT30;69749;42.684;23.360;2024-03-02T08:49:07;10.89;73.63
80412;SHT30;69749;42.684;23.360;2024-03-02T08:51:33;10.87;73.37
80412;SHT30;69749;42.684;23.360;2024-03-02T08:53:59;10.96;73.03
80412;SHT30;69749;42.684;23.360;2024-03-02T08:56:24;11.11;72.86
80412;SHT30;69749;42.684;23.360;2024-03-02T08:58:51;11.21;72.17
80412;SHT30;69749;42.684;23.360;2024-03-02T09:01:17;11.27;72.16
80412;SHT30;69749;42.684;23.360;2024-03-02T09:03:52;11.42;71.68
80412;SHT30;69749;42.684;23.360;2024-03-02T09:06:36;11.45;71.03
80412;SHT30;69749;42.684;23.360;2024-03-02T09:09:02;11.45;70.92
80412;SHT30;69749;42.684;23.360;2024-03-02T09:11:28;11.39;71.34
80412;SHT30;69749;42.684;23.360;2024-03-02T09:13:54;11.51;71.55
80412;SHT30;69749;42.684;23.360;2024-03-02T09:16:21;11.58;70.45
80412;SHT30;69749;42.684;23.360;2024-03-02T09:18:46;11.66;70.50
80412;SHT30;69749;42.684;23.360;2024-03-02T09:21:12;11.76;69.52
80412;SHT30;69749;42.684;23.360;2024-03-02T09:23:38;11.72;69.34
80412;SHT30;69749;42.684;23.360;2024-03-02T09:26:05;11.75;69.59
80412;SHT30;69749;42.684;23.360;2024-03-02T09:28:31;11.83;69.48
80412;SHT30;69749;42.684;23.360;2024-03-02T09:30:56;11.92;69.44
80412;SHT30;69749;42.684;23.360;2024-03-02T09:33:24;11.78;69.65
80412;SHT30;69749;42.684;23.360;2024-03-02T09:35:50;11.61;69.65
80412;SHT30;69749;42.684;23.360;2024-03-02T09:38:15;11.61;69.85
80412;SHT30;69749;42.684;23.360;2024-03-02T09:40:42;11.31;69.94
80412;SHT30;69749;42.684;23.360;2024-03-02T09:43:07;11.34;69.91
80412;SHT30;69749;42.684;23.360;2024-03-02T09:45:34;11.38;69.53
80412;SHT30;69749;42.684;23.360;2024-03-02T09:47:59;11.51;69.81
80412;SHT30;69749;42.684;23.360;2024-03-02T09:50:25;11.48;70.11
80412;SHT30;69749;42.684;23.360;2024-03-02T09:52:50;11.63;70.29
80412;SHT30;69749;42.684;23.360;2024-03-02T09:55:18;11.72;69.83
80412;SHT30;69749;42.684;23.360;2024-03-02T09:57:45;11.59;70.37
80412;SHT30;69749;42.684;23.360;2024-03-02T10:00:14;11.59;70.15
80412;SHT30;69749;42.684;23.360;2024-03-02T10:02:43;11.58;70.38
80412;SHT30;69749;42.684;23.360;2024-03-02T10:05:09;11.85;70.44
80412;SHT30;69749;42.684;23.360;2024-03-02T10:07:35;11.69;71.02
80412;SHT30;69749;42.684;23.360;2024-03-02T10:10:12;11.92;70.44
80412;SHT30;69749;42.684;23.360;2024-03-02T10:12:38;11.80;69.65
80412;SHT30;69749;42.684;23.360;2024-03-02T10:15:04;11.83;70.11
80412;SHT30;69749;42.684;23.360;2024-03-02T10:17:31;11.52;71.21
80412;SHT30;69749;42.684;23.360;2024-03-02T10:19:57;11.72;71.66
80412;SHT30;69749;42.684;23.360;2024-03-02T10:22:23;11.87;71.51
80412;SHT30;69749;42.684;23.360;2024-03-02T10:24:48;11.99;71.07
80412;SHT30;69749;42.684;23.360;2024-03-02T10:27:22;11.94;69.74
80412;SHT30;69749;42.684;23.360;2024-03-02T10:29:48;12.04;69.84
80412;SHT30;69749;42.684;23.360;2024-03-02T10:32:15;12.12;69.68
80412;SHT30;69749;42.684;23.360;2024-03-02T10:34:42;12.21;69.81
80412;SHT30;69749;42.684;23.360;2024-03-02T10:37:10;11.92;69.95
80412;SHT30;69749;42.684;23.360;2024-03-02T10:39:36;11.85;70.20
80412;SHT30;69749;42.684;23.360;2024-03-02T10:42:03;12.02;70.43
80412;SHT30;69749;42.684;23.360;2024-03-02T10:44:30;12.00;70.07
80412;SHT30;69749;42.684;23.360;2024-03-02T10:46:56;11.99;69.70
80412;SHT30;69749;42.684;23.360;2024-03-02T10:49:26;11.96;69.91
80412;SHT30;69749;42.684;23.360;2024-03-02T10:51:53;11.97;69.57
80412;SHT30;69749;42.684;23.360;2024-03-02T10:54:18;12.10;69.20
80412;SHT30;69749;42.684;23.360;2024-03-02T10:56:44;12.09;69.12
80412;SHT30;69749;42.684;23.360;2024-03-02T11:01:38;12.17;68.68
80412;SHT30;69749;42.684;23.360;2024-03-02T11:04:08;12.26;68.37
80412;SHT30;69749;42.684;23.360;2024-03-02T11:06:35;12.31;68.97
80412;SHT30;69749;42.684;23.360;2024-03-02T11:09:06;12.27;68.93
80412;SHT30;69749;42.684;23.360;2024-03-02T11:11:37;12.29;68.97
80412;SHT30;69749;42.684;23.360;2024-03-02T11:14:07;12.17;69.52
80412;SHT30;69749;42.684;23.360;2024-03-02T11:16:38;12.23;69.52
80412;SHT30;69749;42.684;23.360;2024-03-02T11:19:10;12.37;69.53
80412;SHT30;69749;42.684;23.360;2024-03-02T11:21:37;12.47;69.03
80412;SHT30;69749;42.684;23.360;2024-03-02T11:26:47;12.17;68.75
80412;SHT30;69749;42.684;23.360;2024-03-02T11:32:05;12.21;69.12
80412;SHT30;69749;42.684;23.360;2024-03-02T11:34:31;12.19;69.13
80412;SHT30;69749;42.684;23.360;2024-03-02T11:36:58;12.24;69.24
80412;SHT30;69749;42.684;23.360;2024-03-02T11:39:27;12.20;69.32
80412;SHT30;69749;42.684;23.360;2024-03-02T11:41:53;12.24;69.58
80412;SHT30;69749;42.684;23.360;2024-03-02T11:44:19;12.29;69.85
80412;SHT30;69749;42.684;23.360;2024-03-02T11:46:45;12.40;69.15
80412;SHT30;69749;42.684;23.360;2024-03-02T11:49:15;12.42;68.78
80412;SHT30;69749;42.684;23.360;2024-03-02T11:51:53;12.38;69.02
80412;SHT30;69749;42.684;23.360;2024-03-02T11:54:26;12.41;69.11
80412;SHT30;69749;42.684;23.360;2024-03-02T11:56:54;12.45;69.04
80412;SHT30;69749;42.684;23.360;2024-03-02T11:59:20;12.47;68.92
80412;SHT30;69749;42.684;23.360;2024-03-02T12:01:47;12.38;67.69
80412;SHT30;69749;42.684;23.360;2024-03-02T12:04:13;12.38;68.09
80412;SHT30;69749;42.684;23.360;2024-03-02T12:06:39;12.33;68.39
80412;SHT30;69749;42.684;23.360;2024-03-02T12:09:05;12.41;68.49
80412;SHT30;69749;42.684;23.360;2024-03-02T12:14:14;12.21;67.51
80412;SHT30;69749;42.684;23.360;2024-03-02T12:16:46;12.34;67.52
80412;SHT30;69749;42.684;23.360;2024-03-02T12:19:12;12.45;66.92
80412;SHT30;69749;42.684;23.360;2024-03-02T12:21:38;12.41;66.89
80412;SHT30;69749;42.684;23.360;2024-03-02T12:24:04;12.44;66.93
80412;SHT30;69749;42.684;23.360;2024-03-02T12:26:30;12.54;67.08
80412;SHT30;69749;42.684;23.360;2024-03-02T12:28:55;12.62;67.05
80412;SHT30;69749;42.684;23.360;2024-03-02T12:31:21;12.68;66.50
80412;SHT30;69749;42.684;23.360;2024-03-02T12:33:46;12.67;66.34
80412;SHT30;69749;42.684;23.360;2024-03-02T12:36:13;12.62;66.47
80412;SHT30;69749;42.684;23.360;2024-03-02T12:38:43;12.67;66.50
80412;SHT30;69749;42.684;23.360;2024-03-02T12:41:09;12.72;66.10
80412;SHT30;69749;42.684;23.360;2024-03-02T12:43:35;12.75;65.87
80412;SHT30;69749;42.684;23.360;2024-03-02T12:46:03;12.79;65.39
80412;SHT30;69749;42.684;23.360;2024-03-02T12:48:28;12.89;65.39
80412;SHT30;69749;42.684;23.360;2024-03-02T12:50:54;12.93;65.66
80412;SHT30;69749;42.684;23.360;2024-03-02T12:53:21;12.96;64.88
80412;SHT30;69749;42.684;23.360;2024-03-02T12:55:48;13.10;64.50
80412;SHT30;69749;42.684;23.360;2024-03-02T12:58:19;13.02;63.52
80412;SHT30;69749;42.684;23.360;2024-03-02T13:00:44;12.87;64.05
80412;SHT30;69749;42.684;23.360;2024-03-02T13:03:11;12.84;64.90
80412;SHT30;69749;42.684;23.360;2024-03-02T13:05:37;12.84;64.81
80412;SHT30;69749;42.684;23.360;2024-03-02T13:08:02;12.67;65.21
80412;SHT30;69749;42.684;23.360;2024-03-02T13:10:30;12.81;65.42
80412;SHT30;69749;42.684;23.360;2024-03-02T13:12:59;12.91;64.78
80412;SHT30;69749;42.684;23.360;2024-03-02T13:15:27;13.00;64.60
80412;SHT30;69749;42.684;23.360;2024-03-02T13:17:53;13.08;64.44
80412;SHT30;69749;42.684;23.360;2024-03-02T13:20:18;13.13;63.73
80412;SHT30;69749;42.684;23.360;2024-03-02T13:22:45;13.20;63.39
80412;SHT30;69749;42.684;23.360;2024-03-02T13:25:10;13.22;63.16
80412;SHT30;69749;42.684;23.360;2024-03-02T13:27:36;13.18;62.52
80412;SHT30;69749;42.684;23.360;2024-03-02T13:30:05;13.20;62.82
80412;SHT30;69749;42.684;23.360;2024-03-02T13:32:31;13.24;62.94
80412;SHT30;69749;42.684;23.360;2024-03-02T13:34:57;13.26;62.50
80412;SHT30;69749;42.684;23.360;2024-03-02T13:37:23;13.26;62.39
80412;SHT30;69749;42.684;23.360;2024-03-02T13:39:49;13.23;62.21
80412;SHT30;69749;42.684;23.360;2024-03-02T13:42:15;13.19;61.50
80412;SHT30;69749;42.684;23.360;2024-03-02T13:44:42;13.16;61.75
80412;SHT30;69749;42.684;23.360;2024-03-02T13:47:09;13.18;62.29
80412;SHT30;69749;42.684;23.360;2024-03-02T13:49:35;13.23;62.76
80412;SHT30;69749;42.684;23.360;2024-03-02T13:52:03;13.26;62.58
80412;SHT30;69749;42.684;23.360;2024-03-02T13:54:49;13.23;62.62
80412;SHT30;69749;42.684;23.360;2024-03-02T13:57:14;13.23;62.50
80412;SHT30;69749;42.684;23.360;2024-03-02T13:59:41;13.27;62.41
80412;SHT30;69749;42.684;23.360;2024-03-02T14:02:08;13.23;62.52
80412;SHT30;69749;42.684;23.360;2024-03-02T14:04:34;13.20;62.80
80412;SHT30;69749;42.684;23.360;2024-03-02T14:07:01;13.23;63.12
80412;SHT30;69749;42.684;23.360;2024-03-02T14:09:26;13.13;63.36
80412;SHT30;69749;42.684;23.360;2024-03-02T14:11:56;13.18;63.56
80412;SHT30;69749;42.684;23.360;2024-03-02T14:14:22;13.18;63.44
80412;SHT30;69749;42.684;23.360;2024-03-02T14:16:48;13.12;63.49
80412;SHT30;69749;42.684;23.360;2024-03-02T14:19:14;13.08;63.30
80412;SHT30;69749;42.684;23.360;2024-03-02T14:21:39;13.12;63.36
80412;SHT30;69749;42.684;23.360;2024-03-02T14:24:05;13.16;63.60
80412;SHT30;69749;42.684;23.360;2024-03-02T14:26:35;13.19;63.61
80412;SHT30;69749;42.684;23.360;2024-03-02T14:29:02;13.26;63.49
80412;SHT30;69749;42.684;23.360;2024-03-02T14:31:28;13.30;63.83
80412;SHT30;69749;42.684;23.360;2024-03-02T14:33:54;13.29;64.10
80412;SHT30;69749;42.684;23.360;2024-03-02T14:36:20;13.35;62.73
80412;SHT30;69749;42.684;23.360;2024-03-02T14:38:45;13.22;63.58
80412;SHT30;69749;42.684;23.360;2024-03-02T14:41:11;13.24;63.48
80412;SHT30;69749;42.684;23.360;2024-03-02T14:43:37;13.22;63.08
80412;SHT30;69749;42.684;23.360;2024-03-02T14:46:03;13.18;62.34
80412;SHT30;69749;42.684;23.360;2024-03-02T14:48:29;13.18;62.76
80412;SHT30;69749;42.684;23.360;2024-03-02T14:50:54;13.13;63.12
80412;SHT30;69749;42.684;23.360;2024-03-02T14:53:20;13.15;62.88
80412;SHT30;69749;42.684;23.360;2024-03-02T14:55:46;13.16;62.64
80412;SHT30;69749;42.684;23.360;2024-03-02T14:58:11;13.06;62.65
80412;SHT30;69749;42.684;23.360;2024-03-02T15:00:37;13.09;62.52
80412;SHT30;69749;42.684;23.360;2024-03-02T15:03:07;13.10;63.21
80412;SHT30;69749;42.684;23.360;2024-03-02T15:05:34;13.16;63.61
80412;SHT30;69749;42.684;23.360;2024-03-02T15:08:00;13.16;63.99
80412;SHT30;69749;42.684;23.360;2024-03-02T15:10:28;13.05;63.87
80412;SHT30;69749;42.684;23.360;2024-03-02T15:12:53;12.98;64.45
80412;SHT30;69749;42.684;23.360;2024-03-02T15:15:19;12.95;64.41
80412;SHT30;69749;42.684;23.360;2024-03-02T15:17:44;12.91;64.92
80412;SHT30;69749;42.684;23.360;2024-03-02T15:20:10;12.93;64.81
80412;SHT30;69749;42.684;23.360;2024-03-02T15:22:36;12.98;64.71
80412;SHT30;69749;42.684;23.360;2024-03-02T15:25:01;12.89;64.94